createdAt,value
2023-01-23T00:02:15.627Z,97178.16
2023-01-23T00:05:17.172Z,97179.91
2023-01-23T00:08:21.647Z,97180.75
2023-01-23T00:11:30.050Z,97180.81
2023-01-23T00:14:31.659Z,97183.38
2023-01-23T00:17:33.217Z,97195.72
2023-01-23T00:20:37.660Z,97201.06
2023-01-23T00:23:46.114Z,97207.38
2023-01-23T00:26:47.823Z,97213.75
2023-01-23T00:29:52.677Z,97215.50
2023-01-23T00:32:54.643Z,97210.25
2023-01-23T00:35:56.250Z,97212.03
2023-01-23T00:38:57.835Z,97208.56
2023-01-23T00:41:59.453Z,97207.63
2023-01-23T00:45:01.003Z,97207.63
2023-01-23T00:48:02.577Z,97199.78
2023-01-23T00:51:04.550Z,97205.78
2023-01-23T00:54:06.222Z,97204.97
2023-01-23T00:57:07.797Z,97201.59
2023-01-23T01:00:10.046Z,97205.03
2023-01-23T01:03:12.079Z,97198.97
2023-01-23T01:06:15.089Z,97207.69
2023-01-23T01:09:16.639Z,97216.38
2023-01-23T01:12:19.436Z,97205.13
2023-01-23T01:15:20.938Z,97212.88
2023-01-23T01:18:23.767Z,97216.28
2023-01-23T01:21:25.337Z,97218.06
2023-01-23T01:24:26.901Z,97225.84
2023-01-23T01:27:29.233Z,97232.94
2023-01-23T01:30:31.108Z,97233.72
2023-01-23T01:33:34.478Z,97219.84
2023-01-23T01:36:36.095Z,97225.00
2023-01-23T01:39:37.654Z,97229.38
2023-01-23T01:42:42.445Z,97231.19
2023-01-23T01:46:06.001Z,97218.06
2023-01-23T01:49:12.489Z,97216.47
2023-01-23T01:52:16.569Z,97231.19
2023-01-23T01:55:18.215Z,97225.09
2023-01-23T01:58:21.276Z,97230.38
2023-01-23T02:01:23.010Z,97224.22
2023-01-23T02:04:24.951Z,97224.28
2023-01-23T02:07:41.731Z,97219.03
2023-01-23T02:10:44.425Z,97221.66
2023-01-23T02:13:46.108Z,97216.41
2023-01-23T02:16:51.045Z,97211.19
2023-01-23T02:20:11.346Z,97205.13
2023-01-23T02:23:28.582Z,97201.66
2023-01-23T02:26:36.645Z,97189.63
2023-01-23T02:29:45.783Z,97184.44
2023-01-23T02:32:48.695Z,97187.09
2023-01-23T02:35:50.789Z,97194.97
2023-01-23T02:39:01.778Z,97179.38
2023-01-23T02:42:05.843Z,97196.03
2023-01-23T02:45:21.304Z,97189.03
2023-01-23T02:48:24.305Z,97190.78
2023-01-23T02:51:25.994Z,97193.47
2023-01-23T02:54:27.731Z,97199.56
2023-01-23T02:57:29.933Z,97190.03
2023-01-23T03:00:31.432Z,97198.66
2023-01-23T03:03:34.433Z,97192.63
2023-01-23T03:06:37.600Z,97190.00
2023-01-23T03:09:39.597Z,97178.66
2023-01-23T03:12:43.497Z,97189.06
2023-01-23T03:15:45.207Z,97197.00
2023-01-23T03:18:54.260Z,97195.28
2023-01-23T03:21:57.167Z,97202.28
2023-01-23T03:24:58.865Z,97217.16
2023-01-23T03:28:00.432Z,97216.31
2023-01-23T03:31:02.105Z,97227.66
2023-01-23T03:34:04.343Z,97224.19
2023-01-23T03:37:08.752Z,97230.38
2023-01-23T03:40:38.354Z,97229.56
2023-01-23T03:43:40.648Z,97214.16
2023-01-23T03:46:42.234Z,97222.63
2023-01-23T03:49:44.225Z,97225.25
2023-01-23T03:52:45.969Z,97217.56
2023-01-23T03:55:48.026Z,97208.00
2023-01-23T03:58:50.523Z,97220.31
2023-01-23T04:01:54.048Z,97218.66
2023-01-23T04:04:55.599Z,97216.03
2023-01-23T04:07:57.233Z,97216.22
2023-01-23T04:11:08.387Z,97215.38
2023-01-23T04:14:10.139Z,97212.81
2023-01-23T04:17:11.721Z,97212.94
2023-01-23T04:20:13.887Z,97205.94
2023-01-23T04:23:17.962Z,97207.72
2023-01-23T04:26:19.682Z,97212.09
2023-01-23T04:29:21.203Z,97215.63
2023-01-23T04:32:22.987Z,97216.53
2023-01-23T04:35:25.971Z,97220.88
2023-01-23T04:38:29.671Z,97223.53
2023-01-23T04:41:33.428Z,97228.72
2023-01-23T04:44:39.219Z,97227.88
2023-01-23T04:48:03.540Z,97245.25
2023-01-23T04:51:08.798Z,97245.25
2023-01-23T04:54:10.865Z,97249.63
2023-01-23T04:57:12.540Z,97250.53
2023-01-23T05:00:15.389Z,97248.03
2023-01-23T05:03:17.868Z,97252.19
2023-01-23T05:06:21.699Z,97252.06
2023-01-23T05:09:23.537Z,97245.91
2023-01-23T05:12:27.474Z,97245.91
2023-01-23T05:15:30.836Z,97251.09
2023-01-23T05:18:32.601Z,97241.47
2023-01-23T05:21:34.290Z,97237.94
2023-01-23T05:24:36.259Z,97246.66
2023-01-23T05:27:42.022Z,97246.56
2023-01-23T05:30:43.650Z,97244.81
2023-01-23T05:33:54.139Z,97248.41
2023-01-23T05:36:55.783Z,97252.56
2023-01-23T05:39:57.454Z,97254.25
2023-01-23T05:43:01.263Z,97259.41
2023-01-23T05:46:28.414Z,97249.94
2023-01-23T05:49:31.263Z,97254.25
2023-01-23T05:52:35.533Z,97265.34
2023-01-23T05:55:38.408Z,97270.53
2023-01-23T05:58:40.659Z,97266.00
2023-01-23T06:01:55.167Z,97276.50
2023-01-23T06:05:15.420Z,97280.72
2023-01-23T06:08:34.489Z,97278.91
2023-01-23T06:11:38.104Z,97285.97
2023-01-23T06:14:40.949Z,97291.97
2023-01-23T06:17:42.987Z,97292.09
2023-01-23T06:20:44.866Z,97291.25
2023-01-23T06:23:47.816Z,97296.34
2023-01-23T06:26:50.901Z,97299.84
2023-01-23T06:29:52.687Z,97291.00
2023-01-23T06:32:55.233Z,97292.66
2023-01-23T06:36:06.492Z,97288.97
2023-01-23T06:39:12.537Z,97293.38
2023-01-23T06:42:16.069Z,97294.22
2023-01-23T06:45:22.701Z,97301.03
2023-01-23T06:48:25.720Z,97287.00
2023-01-23T06:51:27.824Z,97289.59
2023-01-23T06:54:29.467Z,97302.69
2023-01-23T06:57:35.897Z,97295.56
2023-01-23T07:00:39.767Z,97292.94
2023-01-23T07:03:44.966Z,97293.66
2023-01-23T07:06:47.556Z,97286.69
2023-01-23T07:09:51.155Z,97292.75
2023-01-23T07:12:56.057Z,97302.38
2023-01-23T07:15:57.740Z,97298.84
2023-01-23T07:18:59.516Z,97298.00
2023-01-23T07:22:02.605Z,97297.88
2023-01-23T07:25:04.490Z,97289.25
2023-01-23T07:28:06.541Z,97298.00
2023-01-23T07:31:08.186Z,97299.66
2023-01-23T07:34:09.836Z,97312.66
2023-01-23T07:37:11.424Z,97307.38
2023-01-23T07:40:13.520Z,97301.25
2023-01-23T07:43:15.087Z,97303.84
2023-01-23T07:46:16.629Z,97305.53
2023-01-23T07:49:18.364Z,97304.75
2023-01-23T07:52:19.883Z,97302.00
2023-01-23T07:55:21.419Z,97311.59
2023-01-23T07:58:23.309Z,97321.88
2023-01-23T08:01:25.620Z,97322.59
2023-01-23T08:04:27.781Z,97328.63
2023-01-23T08:07:29.302Z,97325.94
2023-01-23T08:10:30.827Z,97306.72
2023-01-23T08:13:32.412Z,97307.59
2023-01-23T08:16:34.031Z,97312.84
2023-01-23T08:19:35.565Z,97322.28
2023-01-23T08:22:40.726Z,97310.75
2023-01-23T08:25:42.264Z,97314.22
2023-01-23T08:28:45.389Z,97313.38
2023-01-23T08:31:46.997Z,97323.66
2023-01-23T08:34:48.952Z,97328.91
2023-01-23T08:37:50.519Z,97319.22
2023-01-23T08:40:53.937Z,97319.84
2023-01-23T08:43:57.537Z,97324.19
2023-01-23T08:46:59.109Z,97332.84
2023-01-23T08:50:00.637Z,97323.97
2023-01-23T08:53:03.405Z,97319.78
2023-01-23T08:56:07.824Z,97310.94
2023-01-23T08:59:09.381Z,97321.34
2023-01-23T09:02:12.877Z,97314.22
2023-01-23T09:05:14.662Z,97317.69
2023-01-23T09:08:16.241Z,97323.75
2023-01-23T09:11:19.242Z,97335.00
2023-01-23T09:14:21.956Z,97336.53
2023-01-23T09:17:23.540Z,97340.09
2023-01-23T09:20:29.181Z,97334.69
2023-01-23T09:23:31.230Z,97327.81
2023-01-23T09:26:33.308Z,97331.09
2023-01-23T09:29:35.282Z,97346.63
2023-01-23T09:32:37.352Z,97343.09
2023-01-23T09:35:38.872Z,97340.41
2023-01-23T09:38:40.490Z,97338.41
2023-01-23T09:41:45.182Z,97330.41
2023-01-23T09:45:01.739Z,97343.41
2023-01-23T09:48:42.215Z,97340.72
2023-01-23T09:51:56.648Z,97344.94
2023-01-23T09:55:12.170Z,97335.28
2023-01-23T09:58:24.452Z,97319.91
2023-01-23T10:01:29.918Z,97329.94
2023-01-23T10:04:32.607Z,97319.59
2023-01-23T10:07:53.074Z,97317.59
2023-01-23T10:11:15.293Z,97324.56
2023-01-23T10:14:39.301Z,97321.00
2023-01-23T10:18:19.340Z,97311.28
2023-01-23T10:21:45.970Z,97314.69
2023-01-23T10:24:54.235Z,97306.69
2023-01-23T10:28:10.738Z,97293.47
2023-01-23T10:31:19.110Z,97280.97
2023-01-23T10:34:46.522Z,97289.66
2023-01-23T10:38:00.723Z,97280.06
2023-01-23T10:41:14.494Z,97278.06
2023-01-23T10:44:19.588Z,97281.41
2023-01-23T10:47:33.161Z,97282.13
2023-01-23T10:50:39.676Z,97274.22
2023-01-23T10:53:41.930Z,97274.16
2023-01-23T10:56:49.779Z,97271.59
2023-01-23T11:00:04.341Z,97273.16
2023-01-23T11:03:28.181Z,97274.09
2023-01-23T11:06:29.737Z,97258.25
2023-01-23T11:09:33.135Z,97257.25
2023-01-23T11:12:47.780Z,97259.75
2023-01-23T11:15:50.447Z,97257.13
2023-01-23T11:18:55.904Z,97244.03
2023-01-23T11:22:04.261Z,97244.84
2023-01-23T11:25:33.199Z,97240.28
2023-01-23T11:28:48.784Z,97234.88
2023-01-23T11:32:01.042Z,97227.75
2023-01-23T11:35:29.836Z,97221.44
2023-01-23T11:38:51.405Z,97205.72
2023-01-23T11:41:54.741Z,97216.13
2023-01-23T11:44:59.710Z,97206.34
2023-01-23T11:48:23.226Z,97201.75
2023-01-23T11:51:30.811Z,97198.16
2023-01-23T11:54:36.315Z,97196.25
2023-01-23T11:57:50.576Z,97191.59
2023-01-23T12:01:04.692Z,97193.19
2023-01-23T12:04:26.212Z,97184.25
2023-01-23T12:07:27.822Z,97187.69
2023-01-23T12:10:55.273Z,97189.25
2023-01-23T12:14:16.017Z,97191.63
2023-01-23T12:17:44.685Z,97184.44
2023-01-23T12:20:58.696Z,97192.09
2023-01-23T12:24:17.519Z,97188.31
2023-01-23T12:27:43.841Z,97197.84
2023-01-23T12:31:05.659Z,97183.97
2023-01-23T12:34:26.436Z,97180.16
2023-01-23T12:37:31.251Z,97175.53
2023-01-23T12:40:32.881Z,97174.53
2023-01-23T12:43:45.728Z,97166.47
2023-01-23T12:46:59.080Z,97161.16
2023-01-23T12:50:16.978Z,97161.03
2023-01-23T12:53:22.960Z,97171.34
2023-01-23T12:56:33.610Z,97166.88
2023-01-23T12:59:50.411Z,97162.41
2023-01-23T13:03:15.291Z,97157.94
2023-01-23T13:06:18.429Z,97163.97
2023-01-23T13:09:26.767Z,97157.72
2023-01-23T13:12:29.188Z,97158.47
2023-01-23T13:15:40.516Z,97162.72
2023-01-23T13:19:39.889Z,97149.56
2023-01-23T13:22:41.490Z,97151.19
2023-01-23T13:25:43.596Z,97154.56
2023-01-23T13:28:57.673Z,97144.81
2023-01-23T13:32:29.009Z,97139.56
2023-01-23T13:35:39.890Z,97141.19
2023-01-23T13:38:42.225Z,97125.63
2023-01-23T13:41:45.959Z,97146.19
2023-01-23T13:45:21.142Z,97142.63
2023-01-23T14:20:19.545Z,97135.78
2023-01-23T14:23:37.611Z,97120.06
2023-01-23T14:26:49.398Z,97129.25
2023-01-23T14:30:03.823Z,97131.97
2023-01-23T14:33:11.895Z,97132.81
2023-01-23T14:36:18.496Z,97136.38
2023-01-23T14:39:24.548Z,97143.41
2023-01-23T14:42:31.841Z,97150.31
2023-01-23T14:45:35.230Z,97149.47
2023-01-23T14:48:42.536Z,97147.69
2023-01-23T14:51:59.921Z,97142.41
2023-01-23T14:55:07.680Z,97151.94
2023-01-23T14:58:24.893Z,97141.50
2023-01-23T15:01:27.951Z,97138.78
2023-01-23T15:04:31.360Z,97143.28
2023-01-23T15:07:34.534Z,97136.22
2023-01-23T15:10:47.274Z,97143.28
2023-01-23T15:13:55.297Z,97148.47
2023-01-23T15:17:02.480Z,97144.13
2023-01-23T15:20:05.443Z,97151.16
2023-01-23T15:23:19.593Z,97163.47
2023-01-23T15:26:31.306Z,97165.25
2023-01-23T15:29:34.307Z,97155.66
2023-01-23T15:32:39.110Z,97157.38
2023-01-23T15:35:41.274Z,97160.06
2023-01-23T15:38:47.095Z,97163.56
2023-01-23T15:41:53.424Z,97174.94
2023-01-23T15:44:55.763Z,97166.13
2023-01-23T15:47:57.458Z,97159.16
2023-01-23T15:50:59.012Z,97164.34
2023-01-23T15:54:00.647Z,97155.59
2023-01-23T15:57:07.920Z,97157.38
2023-01-23T16:00:14.808Z,97147.94
2023-01-23T16:03:16.815Z,97148.78
2023-01-23T16:06:23.662Z,97159.34
2023-01-23T16:09:31.781Z,97155.00
2023-01-23T16:12:35.501Z,97155.00
2023-01-23T16:15:39.864Z,97161.03
2023-01-23T16:18:42.084Z,97152.28
2023-01-23T16:21:47.712Z,97159.22
2023-01-23T16:24:55.524Z,97172.50
2023-01-23T16:27:57.537Z,97179.47
2023-01-23T16:30:59.175Z,97187.38
2023-01-23T16:34:01.034Z,97179.53
2023-01-23T16:37:03.170Z,97182.25
2023-01-23T16:40:05.642Z,97169.94
2023-01-23T16:43:08.476Z,97186.53
2023-01-23T16:46:11.464Z,97183.03
2023-01-23T16:49:13.993Z,97197.91
2023-01-23T16:52:16.074Z,97201.34
2023-01-23T16:55:23.205Z,97194.25
2023-01-23T16:58:29.407Z,97187.25
2023-01-23T17:01:36.206Z,97189.03
2023-01-23T17:04:37.886Z,97176.84
2023-01-23T17:07:39.766Z,97186.41
2023-01-23T17:10:46.220Z,97186.41
2023-01-23T17:13:52.977Z,97188.19
2023-01-23T17:17:02.107Z,97193.47
2023-01-23T17:20:05.545Z,97197.06
2023-01-23T17:23:11.181Z,97199.69
2023-01-23T17:26:18.231Z,97212.75
2023-01-23T17:29:20.211Z,97215.31
2023-01-23T17:32:24.957Z,97213.59
2023-01-23T17:35:34.782Z,97214.53
2023-01-23T17:38:38.700Z,97225.91
2023-01-23T17:41:40.794Z,97226.78
2023-01-23T17:44:42.786Z,97222.44
2023-01-23T17:47:48.356Z,97234.78
2023-01-23T17:50:50.444Z,97234.06
2023-01-23T17:53:52.760Z,97235.78
2023-01-23T17:56:54.821Z,97238.50
2023-01-23T17:59:56.806Z,97232.38
2023-01-23T18:03:00.971Z,97235.84
2023-01-23T18:06:02.516Z,97245.47
2023-01-23T18:09:04.456Z,97245.38
2023-01-23T18:12:07.841Z,97244.53
2023-01-23T18:15:19.773Z,97240.19
2023-01-23T18:18:29.530Z,97248.94
2023-01-23T18:21:31.444Z,97249.81
2023-01-23T18:24:33.586Z,97248.09
2023-01-23T18:27:40.861Z,97252.44
2023-01-23T18:30:59.804Z,97252.75
2023-01-23T18:34:17.199Z,97251.13
2023-01-23T18:37:51.995Z,97256.00
2023-01-23T18:40:56.839Z,97255.22
2023-01-23T18:44:12.881Z,97263.13
2023-01-23T18:47:14.940Z,97258.78
2023-01-23T18:50:22.728Z,97263.19
2023-01-23T18:53:49.696Z,97251.06
2023-01-23T18:57:21.686Z,97242.28
2023-01-23T19:00:36.516Z,97259.88
2023-01-23T19:03:42.553Z,97259.03
2023-01-23T19:06:44.985Z,97260.94
2023-01-23T19:09:48.346Z,97265.28
2023-01-23T19:13:10.085Z,97284.66
2023-01-23T19:16:17.807Z,97286.47
2023-01-23T19:19:39.421Z,97293.50
2023-01-23T19:22:55.335Z,97297.13
2023-01-23T19:25:57.751Z,97293.72
2023-01-23T19:29:08.372Z,97300.75
2023-01-23T19:32:18.132Z,97300.00
2023-01-23T19:35:20.515Z,97290.41
2023-01-23T19:38:23.526Z,97279.94
2023-01-23T19:41:28.854Z,97288.63
2023-01-23T19:44:31.098Z,97284.34
2023-01-23T19:47:33.085Z,97289.69
2023-01-23T19:50:34.967Z,97289.75
2023-01-23T19:53:37.021Z,97297.84
2023-01-23T19:56:39.414Z,97313.56
2023-01-23T19:59:41.016Z,97311.00
2023-01-23T20:02:42.734Z,97314.56
2023-01-23T20:05:44.743Z,97313.63
2023-01-23T20:08:46.926Z,97326.88
2023-01-23T20:11:49.313Z,97317.25
2023-01-23T20:14:51.745Z,97327.84
2023-01-23T20:17:54.173Z,97324.47
2023-01-23T20:20:58.704Z,97315.72
2023-01-23T20:24:00.895Z,97326.31
2023-01-23T20:27:02.759Z,97330.59
2023-01-23T20:30:06.725Z,97327.16
2023-01-23T20:33:08.480Z,97323.69
2023-01-23T20:36:13.840Z,97327.16
2023-01-23T20:39:15.846Z,97325.59
2023-01-23T20:42:17.698Z,97326.56
2023-01-23T20:45:19.534Z,97339.53
2023-01-23T20:48:21.318Z,97332.69
2023-01-23T20:51:23.283Z,97332.56
2023-01-23T20:54:25.275Z,97330.78
2023-01-23T20:57:47.781Z,97322.91
2023-01-23T21:00:49.890Z,97340.47
2023-01-23T21:03:51.782Z,97338.75
2023-01-23T21:06:54.009Z,97333.59
2023-01-23T21:09:56.801Z,97330.97
2023-01-23T21:12:58.372Z,97321.50
2023-01-23T21:16:03.034Z,97327.41
2023-01-23T21:19:05.090Z,97338.75
2023-01-23T21:22:08.046Z,97328.41
2023-01-23T21:25:10.123Z,97327.41
2023-01-23T21:28:11.942Z,97330.03
2023-01-23T21:31:37.109Z,97319.03
2023-01-23T21:34:38.736Z,97338.06
2023-01-23T21:37:42.137Z,97338.06
2023-01-23T21:40:44.244Z,97332.19
2023-01-23T21:43:46.814Z,97347.75
2023-01-23T21:46:49.175Z,97350.31
2023-01-23T21:49:51.833Z,97352.09
2023-01-23T21:52:53.564Z,97352.03
2023-01-23T21:55:55.132Z,97359.13
2023-01-23T21:58:57.243Z,97358.22
2023-01-23T22:01:58.859Z,97357.34
2023-01-23T22:05:01.311Z,97348.53
2023-01-23T22:08:04.494Z,97345.91
2023-01-23T22:11:07.967Z,97350.25
2023-01-23T22:14:09.951Z,97360.84
2023-01-23T22:17:11.458Z,97362.44
2023-01-23T22:20:14.552Z,97358.03
2023-01-23T22:23:16.097Z,97356.25
2023-01-23T22:26:17.665Z,97357.28
2023-01-23T22:29:19.686Z,97357.19
2023-01-23T22:32:21.798Z,97365.94
2023-01-23T22:35:23.686Z,97366.78
2023-01-23T22:38:26.245Z,97363.41
2023-01-23T22:41:28.599Z,97365.09
2023-01-23T22:44:32.049Z,97373.84
2023-01-23T22:47:34.069Z,97366.72
2023-01-23T22:50:36.698Z,97351.84
2023-01-23T22:53:38.394Z,97356.19
2023-01-23T22:56:40.739Z,97363.16
2023-01-23T22:59:42.260Z,97365.81
2023-01-23T23:02:44.213Z,97358.81
2023-01-23T23:05:45.782Z,97354.41
2023-01-23T23:08:49.290Z,97350.06
2023-01-23T23:11:51.824Z,97350.06
2023-01-23T23:14:53.844Z,97358.75
2023-01-23T23:17:55.405Z,97360.53
2023-01-23T23:21:01.969Z,97364.09
2023-01-23T23:24:07.669Z,97366.66
2023-01-23T23:27:09.250Z,97352.72
2023-01-23T23:30:11.302Z,97359.69
2023-01-23T23:33:13.262Z,97359.69
2023-01-23T23:36:14.794Z,97363.94
2023-01-23T23:39:17.807Z,97361.38
2023-01-23T23:42:19.311Z,97362.25
2023-01-23T23:45:21.055Z,97361.38
2023-01-23T23:48:23.636Z,97356.97
2023-01-23T23:51:29.192Z,97365.81
2023-01-23T23:54:31.212Z,97356.13
2023-01-23T23:57:32.740Z,97362.31
